Time;durP1;ratioP1;P1;durP2;ratioP2;P2;SDS_P1;SDS_P2;PMS_P1;PMS_P2;Temp;Humidity;BMP_temperature;BMP_pressure;BME280_temperature;BME280_humidity;BME280_pressure;Samples;Min_cycle;Max_cycle;Signal;HPM_P1;HPM_P2
2022/11/19 00:00:28;;;;;;;50.88;24.30;;;;;;;;;;4952989;29;20038;-96
2022/11/19 00:03:14;;;;;;;47.65;25.00;;;;;;;;;;4961199;29;20071;-96
2022/11/19 00:08:52;;;;;;;50.45;25.13;;;;;;;;;;4962705;28;20038;-96
2022/11/19 00:18:03;;;;;;;;;;;;;;;;;;;;;
2022/11/19 00:20:50;;;;;;;50.35;24.35;;;;;;;;;;4963971;29;20106;-96
2022/11/19 00:23:32;;;;;;;46.05;23.83;;;;;;;;;;4964612;29;20023;-95
2022/11/19 00:26:21;;;;;;;49.42;24.67;;;;;;;;;;4956826;29;20034;-96
2022/11/19 00:31:51;;;;;;;50.70;24.42;;;;;;;;;;4950606;28;20518;-96
2022/11/19 00:34:20;;;;;;;51.72;25.90;;;;;;;;;;4958282;29;20521;-95
2022/11/19 00:36:49;;;;;;;54.67;26.63;;;;;;;;;;4959122;29;20488;-94
2022/11/19 00:39:42;;;;;;;54.67;26.60;;;;;;;;;;4958791;29;20069;-96
2022/11/19 00:42:10;;;;;;;53.63;27.25;;;;;;;;;;4954879;29;20039;-95
2022/11/19 00:44:39;;;;;;;56.25;26.67;;;;;;;;;;4954747;29;20114;-96
2022/11/19 00:47:05;;;;;;;55.05;26.75;;;;;;;;;;4960296;29;20114;-94
2022/11/19 00:49:31;;;;;;;55.20;28.30;;;;;;;;;;4953845;29;20023;-96
2022/11/19 00:51:58;;;;;;;55.47;26.92;;;;;;;;;;4959899;28;20043;-96
2022/11/19 00:54:24;;;;;;;49.22;25.88;;;;;;;;;;4952060;29;20081;-96
2022/11/19 00:56:53;;;;;;;54.33;26.50;;;;;;;;;;4961073;29;20023;-96
2022/11/19 00:59:21;;;;;;;52.10;26.42;;;;;;;;;;4959953;29;20038;-96
2022/11/19 01:01:59;;;;;;;54.10;26.75;;;;;;;;;;4960254;29;20110;-96
2022/11/19 01:07:14;;;;;;;57.80;27.13;;;;;;;;;;4962253;29;20106;-95
2022/11/19 01:09:40;;;;;;;50.08;25.42;;;;;;;;;;4952267;29;20035;-96
2022/11/19 01:12:09;;;;;;;51.20;24.40;;;;;;;;;;4957939;29;20504;-95
2022/11/19 01:14:35;;;;;;;50.90;25.77;;;;;;;;;;4953197;29;20027;-96
2022/11/19 01:17:04;;;;;;;49.40;26.00;;;;;;;;;;4957397;29;20118;-96
2022/11/19 01:19:32;;;;;;;58.60;26.38;;;;;;;;;;4951225;29;20035;-96
2022/11/19 01:22:05;;;;;;;52.33;25.98;;;;;;;;;;4958636;29;20055;-95
2022/11/19 01:24:35;;;;;;;50.67;25.80;;;;;;;;;;4949272;29;20027;-96
2022/11/19 01:27:04;;;;;;;54.72;25.65;;;;;;;;;;4958943;29;20027;-96
2022/11/19 01:29:51;;;;;;;50.65;26.27;;;;;;;;;;4955137;29;20023;-95
2022/11/19 01:32:22;;;;;;;47.53;24.88;;;;;;;;;;4960386;29;20051;-95
2022/11/19 01:35:08;;;;;;;45.85;24.77;;;;;;;;;;4960463;29;20032;-96
2022/11/19 01:37:44;;;;;;;50.22;25.10;;;;;;;;;;4960971;29;20143;-96
2022/11/19 01:40:22;;;;;;;52.60;24.98;;;;;;;;;;4961242;29;20053;-96
2022/11/19 01:42:54;;;;;;;51.85;25.55;;;;;;;;;;4958323;29;20027;-95
2022/11/19 01:45:27;;;;;;;52.72;25.15;;;;;;;;;;4949248;29;20027;-96
2022/11/19 01:48:20;;;;;;;50.13;26.23;;;;;;;;;;4957590;29;20020;-96
2022/11/19 01:51:18;;;;;;;;;;;;;;;;;;;;;
2022/11/19 01:53:52;;;;;;;47.00;23.73;;;;;;;;;;4959746;29;20027;-96
2022/11/19 01:56:28;;;;;;;47.70;24.88;;;;;;;;;;4949746;29;20027;-95
2022/11/19 01:58:57;;;;;;;46.38;24.00;;;;;;;;;;4957117;29;20031;-96
2022/11/19 02:01:31;;;;;;;49.17;25.17;;;;;;;;;;4950194;29;20138;-95
2022/11/19 02:04:07;;;;;;;48.33;25.15;;;;;;;;;;4957589;28;20035;-95
2022/11/19 02:06:34;;;;;;;52.10;25.73;;;;;;;;;;4952070;29;20110;-96
2022/11/19 02:09:02;;;;;;;58.35;27.38;;;;;;;;;;4958846;29;20035;-95
2022/11/19 02:11:36;;;;;;;56.42;26.90;;;;;;;;;;4951551;29;20086;-96
2022/11/19 02:14:21;;;;;;;59.97;30.38;;;;;;;;;;4957577;29;20420;-94
2022/11/19 02:16:57;;;;;;;57.65;29.00;;;;;;;;;;4952956;29;20113;-95
2022/11/19 02:19:42;;;;;;;56.40;28.67;;;;;;;;;;4957310;29;20409;-95
2022/11/19 02:22:30;;;;;;;61.35;29.95;;;;;;;;;;4956822;29;20093;-95
2022/11/19 02:25:05;;;;;;;61.10;30.50;;;;;;;;;;4954773;29;20063;-96
2022/11/19 02:27:52;;;;;;;57.78;28.98;;;;;;;;;;4954841;29;20027;-96
2022/11/19 02:30:29;;;;;;;;;;;;;;;;;;;;;
2022/11/19 02:33:05;;;;;;;62.88;30.30;;;;;;;;;;4960872;29;20051;-96
2022/11/19 02:35:41;;;;;;;56.80;28.30;;;;;;;;;;4953083;29;20043;-96
2022/11/19 02:38:28;;;;;;;59.28;29.17;;;;;;;;;;4958245;29;20046;-96
2022/11/19 02:41:32;;;;;;;57.55;28.92;;;;;;;;;;4954779;29;20114;-96
2022/11/19 02:44:57;;;;;;;57.10;29.15;;;;;;;;;;4958595;29;20027;-96
2022/11/19 02:46:59;;;;;;;56.45;28.60;;;;;;;;;;4943533;28;20031;-95
2022/11/19 02:49:29;;;;;;;57.67;27.20;;;;;;;;;;4972366;28;20024;-96
2022/11/19 02:51:56;;;;;;;52.85;27.90;;;;;;;;;;4975109;28;20102;-96
2022/11/19 02:54:29;;;;;;;57.90;27.48;;;;;;;;;;4955685;29;20099;-96
2022/11/19 02:57:01;;;;;;;57.47;27.10;;;;;;;;;;4961577;29;20032;-96
2022/11/19 03:05:48;;;;;;;55.03;26.77;;;;;;;;;;4960030;29;20046;-96
2022/11/19 03:08:16;;;;;;;50.17;27.70;;;;;;;;;;4957232;29;20118;-96
2022/11/19 03:10:57;;;;;;;56.42;28.33;;;;;;;;;;4954454;29;20102;-96
2022/11/19 03:19:39;;;;;;;53.22;26.80;;;;;;;;;;4898587;29;20048;-96
2022/11/19 03:22:25;;;;;;;52.72;27.85;;;;;;;;;;4953957;29;20067;-96
2022/11/19 03:25:19;;;;;;;51.05;26.67;;;;;;;;;;4958597;29;20118;-96
2022/11/19 03:27:55;;;;;;;55.65;27.25;;;;;;;;;;4963572;29;20063;-96
2022/11/19 03:30:27;;;;;;;55.35;26.50;;;;;;;;;;4961787;29;20059;-96
2022/11/19 03:33:19;;;;;;;53.25;26.95;;;;;;;;;;4960254;29;20102;-95
2022/11/19 03:36:19;;;;;;;;;;;;;;;;;;;;;
2022/11/19 03:39:00;;;;;;;54.08;26.73;;;;;;;;;;4966929;28;20131;-95
2022/11/19 03:41:55;;;;;;;;;;;;;;;;;;;;;
2022/11/19 03:44:43;;;;;;;55.03;26.88;;;;;;;;;;4959001;28;20126;-96
2022/11/19 03:47:24;;;;;;;54.58;26.27;;;;;;;;;;4960259;29;20039;-95
2022/11/19 03:49:59;;;;;;;51.42;26.63;;;;;;;;;;4959893;29;20035;-96
2022/11/19 03:52:50;;;;;;;56.50;27.83;;;;;;;;;;4964854;29;20039;-95
2022/11/19 03:55:45;;;;;;;56.78;27.45;;;;;;;;;;4962568;29;20090;-96
2022/11/19 03:58:36;;;;;;;54.63;27.52;;;;;;;;;;4961092;29;20031;-95
2022/11/19 04:01:06;;;;;;;51.38;25.67;;;;;;;;;;4957076;29;20052;-96
2022/11/19 04:06:43;;;;;;;53.15;26.70;;;;;;;;;;4966410;29;20041;-95
2022/11/19 04:09:14;;;;;;;51.33;26.17;;;;;;;;;;4962876;29;20035;-95
2022/11/19 04:11:47;;;;;;;51.70;26.52;;;;;;;;;;4955766;29;20027;-96
2022/11/19 04:14:16;;;;;;;51.00;25.30;;;;;;;;;;4960403;29;20488;-95
2022/11/19 04:16:50;;;;;;;50.30;25.13;;;;;;;;;;4956607;29;20029;-96
2022/11/19 04:19:29;;;;;;;48.70;25.77;;;;;;;;;;4961396;29;20043;-96
2022/11/19 04:22:00;;;;;;;48.00;24.95;;;;;;;;;;4957728;29;20023;-96
2022/11/19 04:24:39;;;;;;;;;;;;;;;;;;;;;
2022/11/19 04:27:14;;;;;;;50.15;24.73;;;;;;;;;;4962236;28;20094;-96
2022/11/19 04:30:15;;;;;;;48.95;25.65;;;;;;;;;;4955029;29;20029;-95
2022/11/19 04:35:41;;;;;;;45.58;22.00;;;;;;;;;;4962724;28;20031;-96
2022/11/19 04:38:15;;;;;;;45.53;21.48;;;;;;;;;;4958824;29;20114;-94
2022/11/19 04:40:44;;;;;;;45.85;24.13;;;;;;;;;;4955020;29;20066;-96
2022/11/19 04:46:09;;;;;;;40.83;20.80;;;;;;;;;;4948991;28;20039;-96
2022/11/19 04:48:56;;;;;;;43.75;22.83;;;;;;;;;;4950879;29;20035;-96
2022/11/19 04:51:28;;;;;;;47.10;22.58;;;;;;;;;;4959891;29;20023;-95
2022/11/19 04:53:58;;;;;;;46.38;23.60;;;;;;;;;;4956516;29;20035;-96
2022/11/19 04:56:46;;;;;;;45.03;22.65;;;;;;;;;;4953006;29;20024;-96
2022/11/19 04:59:23;;;;;;;41.63;22.42;;;;;;;;;;4959918;28;20043;-96
2022/11/19 05:02:05;;;;;;;46.03;22.35;;;;;;;;;;4957618;29;20027;-95
2022/11/19 05:04:47;;;;;;;44.83;21.88;;;;;;;;;;4959908;29;20118;-96
2022/11/19 05:07:20;;;;;;;39.88;21.45;;;;;;;;;;4959378;29;20023;-96
2022/11/19 05:09:54;;;;;;;40.92;20.63;;;;;;;;;;4958352;29;20027;-96
2022/11/19 05:12:40;;;;;;;43.50;21.15;;;;;;;;;;4954054;29;20032;-96
2022/11/19 05:15:16;;;;;;;37.88;21.23;;;;;;;;;;4960160;29;20435;-96
2022/11/19 05:17:55;;;;;;;;;;;;;;;;;;;;;
2022/11/19 05:20:40;;;;;;;40.15;20.75;;;;;;;;;;4962105;29;20079;-96
2022/11/19 05:23:19;;;;;;;;;;;;;;;;;;;;;
2022/11/19 05:26:04;;;;;;;39.45;20.42;;;;;;;;;;4961512;29;20579;-96
2022/11/19 05:28:45;;;;;;;;;;;;;;;;;;;;;
2022/11/19 05:31:40;;;;;;;40.17;19.88;;;;;;;;;;4961271;29;20106;-95
2022/11/19 05:34:11;;;;;;;37.65;20.00;;;;;;;;;;4959025;29;20051;-96
2022/11/19 05:36:45;;;;;;;38.67;20.45;;;;;;;;;;4955198;29;20110;-96
2022/11/19 05:39:11;;;;;;;37.03;18.33;;;;;;;;;;4959220;28;20035;-96
2022/11/19 05:44:23;;;;;;;38.53;19.58;;;;;;;;;;4996730;23;20048;-94
2022/11/19 05:46:50;;;;;;;40.60;20.50;;;;;;;;;;4903457;29;20127;-95
2022/11/19 05:49:16;;;;;;;38.60;18.65;;;;;;;;;;4894093;29;20055;-94
2022/11/19 05:51:53;;;;;;;36.70;18.45;;;;;;;;;;4889369;29;20116;-94
2022/11/19 05:54:38;;;;;;;36.83;19.33;;;;;;;;;;4900724;29;20044;-96
2022/11/19 05:57:04;;;;;;;38.33;19.27;;;;;;;;;;4905023;29;20047;-95
2022/11/19 05:59:31;;;;;;;32.08;17.88;;;;;;;;;;4901575;29;20041;-94
2022/11/19 06:02:06;;;;;;;38.40;19.02;;;;;;;;;;4902334;29;20482;-95
2022/11/19 06:04:44;;;;;;;34.58;19.02;;;;;;;;;;4904618;29;20024;-94
2022/11/19 06:07:13;;;;;;;36.20;18.13;;;;;;;;;;4899790;29;20028;-94
2022/11/19 06:09:39;;;;;;;37.50;18.80;;;;;;;;;;4905300;29;20038;-93
2022/11/19 06:12:05;;;;;;;37.83;19.00;;;;;;;;;;4900328;29;20044;-92
2022/11/19 06:14:31;;;;;;;35.70;18.35;;;;;;;;;;4906709;29;20039;-92
2022/11/19 06:16:59;;;;;;;36.40;19.15;;;;;;;;;;4910790;29;20029;-90
2022/11/19 06:19:30;;;;;;;36.38;18.83;;;;;;;;;;4917349;29;20008;-90
2022/11/19 06:21:56;;;;;;;33.63;18.85;;;;;;;;;;4905420;29;20032;-91
2022/11/19 06:24:23;;;;;;;32.25;18.30;;;;;;;;;;4904048;29;20028;-92
2022/11/19 06:26:49;;;;;;;36.75;20.08;;;;;;;;;;4902828;29;20029;-92
2022/11/19 06:29:21;;;;;;;38.58;19.70;;;;;;;;;;4902464;29;20147;-93
2022/11/19 06:31:47;;;;;;;37.25;18.98;;;;;;;;;;4905662;29;20125;-91
2022/11/19 06:34:14;;;;;;;34.42;19.52;;;;;;;;;;4906242;29;20084;-94
2022/11/19 06:36:40;;;;;;;35.88;18.98;;;;;;;;;;4903392;29;20024;-93
2022/11/19 06:39:08;;;;;;;35.75;19.88;;;;;;;;;;4902141;29;20028;-93
2022/11/19 06:41:34;;;;;;;37.17;20.00;;;;;;;;;;4900559;29;20119;-93
2022/11/19 06:44:03;;;;;;;33.35;19.02;;;;;;;;;;4904134;29;20067;-94
2022/11/19 06:49:06;;;;;;;35.05;18.50;;;;;;;;;;4961420;23;20520;-94
2022/11/19 06:51:49;;;;;;;33.28;18.15;;;;;;;;;;4909201;29;20032;-96
2022/11/19 06:57:03;;;;;;;33.92;18.42;;;;;;;;;;4921964;29;20050;-95
2022/11/19 06:59:38;;;;;;;34.67;18.35;;;;;;;;;;4914268;29;20028;-93
2022/11/19 07:02:16;;;;;;;33.58;18.10;;;;;;;;;;4914373;29;20064;-96
2022/11/19 07:04:43;;;;;;;34.17;19.23;;;;;;;;;;4909183;29;20056;-95
2022/11/19 07:07:34;;;;;;;34.63;18.63;;;;;;;;;;4908226;29;20075;-95
2022/11/19 07:10:25;;;;;;;32.33;18.27;;;;;;;;;;5069749;23;20081;-95
2022/11/19 07:15:32;;;;;;;30.98;17.80;;;;;;;;;;4920016;29;20031;-94
2022/11/19 07:17:58;;;;;;;35.70;20.33;;;;;;;;;;4937246;23;20047;-95
2022/11/19 07:20:25;;;;;;;35.10;19.67;;;;;;;;;;4884546;29;20025;-93
2022/11/19 07:22:51;;;;;;;32.00;19.83;;;;;;;;;;4886804;29;20486;-95
2022/11/19 07:25:20;;;;;;;33.97;20.13;;;;;;;;;;4885982;29;20039;-94
2022/11/19 07:27:49;;;;;;;33.35;19.30;;;;;;;;;;4886556;29;20029;-93
2022/11/19 07:30:16;;;;;;;33.30;19.45;;;;;;;;;;4888658;29;20028;-96
2022/11/19 07:36:12;;;;;;;32.10;18.58;;;;;;;;;;4816099;29;20058;-95
2022/11/19 07:38:39;;;;;;;33.75;19.55;;;;;;;;;;4791852;29;20125;-92
2022/11/19 07:43:59;;;;;;;35.33;19.42;;;;;;;;;;4906652;29;20410;-92
2022/11/19 07:46:26;;;;;;;33.33;18.27;;;;;;;;;;4885923;29;20119;-93
2022/11/19 07:48:56;;;;;;;32.53;18.55;;;;;;;;;;4885159;29;20490;-95
2022/11/19 07:51:22;;;;;;;32.83;19.02;;;;;;;;;;4884438;29;20119;-93
2022/11/19 07:53:52;;;;;;;33.92;19.33;;;;;;;;;;4885497;29;20104;-93
2022/11/19 07:56:24;;;;;;;35.00;20.05;;;;;;;;;;4885861;29;20063;-94
2022/11/19 07:58:56;;;;;;;35.28;19.60;;;;;;;;;;4885186;29;20086;-94
2022/11/19 08:01:23;;;;;;;38.60;19.77;;;;;;;;;;4971484;23;20091;-94
2022/11/19 08:03:51;;;;;;;33.08;18.50;;;;;;;;;;4904845;29;20025;-94
2022/11/19 08:06:18;;;;;;;31.80;18.80;;;;;;;;;;4901294;29;20033;-94
2022/11/19 08:08:47;;;;;;;33.05;18.98;;;;;;;;;;4905598;29;20037;-95
2022/11/19 08:11:14;;;;;;;36.00;19.50;;;;;;;;;;4906754;29;20028;-95
2022/11/19 08:13:40;;;;;;;34.90;19.67;;;;;;;;;;4909598;29;20040;-96
2022/11/19 08:18:11;;;;;;;35.17;19.35;;;;;;;;;;4907354;29;20375;-95
2022/11/19 08:19:21;;;;;;;33.42;19.10;;;;;;;;;;4917439;29;20036;-96
2022/11/19 08:21:47;;;;;;;34.40;18.92;;;;;;;;;;4909113;29;20028;-96
2022/11/19 08:24:14;;;;;;;31.13;18.40;;;;;;;;;;4908374;29;20032;-95
2022/11/19 08:27:01;;;;;;;33.50;18.17;;;;;;;;;;4907348;29;20383;-95
2022/11/19 08:29:45;;;;;;;31.77;18.45;;;;;;;;;;4900196;29;20099;-96
2022/11/19 08:32:26;;;;;;;30.73;18.02;;;;;;;;;;4907654;29;20507;-95
2022/11/19 08:35:11;;;;;;;32.15;18.63;;;;;;;;;;4921751;29;20051;-95
2022/11/19 08:37:40;;;;;;;32.47;18.27;;;;;;;;;;4909009;29;20119;-96
2022/11/19 08:40:09;;;;;;;31.23;17.80;;;;;;;;;;4905764;29;20031;-96
2022/11/19 08:45:21;;;;;;;30.77;17.55;;;;;;;;;;4925620;29;20039;-96
2022/11/19 08:48:31;;;;;;;30.35;17.02;;;;;;;;;;4907481;29;20398;-96
2022/11/19 08:51:29;;;;;;;;;;;;;;;;;;;;;
2022/11/19 08:54:03;;;;;;;31.90;17.42;;;;;;;;;;4923184;29;20038;-96
2022/11/19 08:59:48;;;;;;;30.90;17.45;;;;;;;;;;4888689;29;20095;-92
2022/11/19 09:11:56;;;;;;;;;;;;;;;;;;;;;
2022/11/19 09:14:37;;;;;;;30.33;17.27;;;;;;;;;;4910987;23;20495;-95
2022/11/19 19:22:54;;;;;;;34.97;19.90;;;;;;;;;;5385721;23;20512;-88
2022/11/19 19:25:20;;;;;;;35.63;20.95;;;;;;;;;;4916845;29;20032;-87
2022/11/19 19:27:46;;;;;;;34.97;19.33;;;;;;;;;;4888840;29;20066;-89
2022/11/19 19:30:12;;;;;;;35.13;20.27;;;;;;;;;;4890707;29;20062;-91
2022/11/19 19:32:38;;;;;;;34.53;19.48;;;;;;;;;;4901203;29;20042;-90
2022/11/19 19:35:04;;;;;;;41.88;22.83;;;;;;;;;;4901248;29;20024;-89
2022/11/19 19:37:30;;;;;;;38.65;22.05;;;;;;;;;;4896870;29;20033;-88
2022/11/19 19:39:57;;;;;;;34.42;20.27;;;;;;;;;;4897046;29;20032;-88
2022/11/19 19:42:27;;;;;;;42.30;23.98;;;;;;;;;;4924257;29;20032;-88
2022/11/19 19:44:53;;;;;;;49.75;26.65;;;;;;;;;;4903952;29;20056;-88
2022/11/19 19:47:38;;;;;;;40.97;23.65;;;;;;;;;;4882548;29;20043;-90
2022/11/19 19:50:04;;;;;;;40.92;21.98;;;;;;;;;;4882052;29;20477;-88
2022/11/19 19:52:33;;;;;;;46.20;24.25;;;;;;;;;;4882305;29;20157;-89
2022/11/19 19:54:59;;;;;;;54.35;28.20;;;;;;;;;;4882378;29;20028;-90
2022/11/19 19:57:28;;;;;;;63.92;32.10;;;;;;;;;;4884290;29;20071;-88
2022/11/19 19:59:54;;;;;;;69.22;30.88;;;;;;;;;;4885827;29;20063;-90
2022/11/19 20:02:20;;;;;;;97.93;35.55;;;;;;;;;;4885874;29;20037;-89
2022/11/19 20:04:46;;;;;;;85.28;32.33;;;;;;;;;;4885601;29;20040;-91
2022/11/19 20:07:12;;;;;;;80.60;31.35;;;;;;;;;;4885634;29;20064;-89
2022/11/19 20:09:38;;;;;;;73.97;34.15;;;;;;;;;;4885584;29;20025;-90
2022/11/19 20:12:05;;;;;;;64.80;32.58;;;;;;;;;;4890640;29;20032;-89
2022/11/19 20:14:31;;;;;;;52.25;28.55;;;;;;;;;;4900813;29;20088;-89
2022/11/19 20:16:57;;;;;;;52.63;28.63;;;;;;;;;;4889260;29;20060;-88
2022/11/19 20:19:23;;;;;;;52.42;28.75;;;;;;;;;;4884697;29;20036;-88
2022/11/19 20:21:51;;;;;;;54.05;30.25;;;;;;;;;;4885315;29;20478;-89
2022/11/19 20:24:18;;;;;;;60.38;31.55;;;;;;;;;;4885479;29;20028;-89
2022/11/19 20:26:45;;;;;;;59.65;31.90;;;;;;;;;;4885004;29;20064;-90
2022/11/19 20:29:12;;;;;;;49.72;26.58;;;;;;;;;;4886148;29;20111;-89
2022/11/19 20:31:39;;;;;;;50.85;26.73;;;;;;;;;;4885112;29;20363;-89
2022/11/19 20:34:05;;;;;;;47.28;23.90;;;;;;;;;;4884778;29;20115;-89
2022/11/19 20:36:33;;;;;;;54.58;26.45;;;;;;;;;;4885028;29;20589;-90
2022/11/19 20:38:59;;;;;;;48.70;26.90;;;;;;;;;;4885181;29;20032;-89
2022/11/19 20:44:18;;;;;;;45.47;25.50;;;;;;;;;;4901752;29;20043;-88
2022/11/19 20:46:44;;;;;;;;;;;;;;;;;;4885524;29;20032;-91
2022/11/19 20:49:12;;;;;;;42.53;23.50;;;;;;;;;;4884686;29;19915;-90
2022/11/19 20:51:38;;;;;;;47.88;25.80;;;;;;;;;;4884930;29;20104;-93
2022/11/19 20:54:04;;;;;;;47.40;25.65;;;;;;;;;;4886825;29;20044;-90
2022/11/19 20:56:31;;;;;;;46.78;25.20;;;;;;;;;;4903807;29;20078;-91
2022/11/19 20:58:57;;;;;;;44.25;23.65;;;;;;;;;;4905686;29;20032;-91
2022/11/19 21:01:23;;;;;;;39.35;21.73;;;;;;;;;;4903625;29;20021;-92
2022/11/19 21:03:49;;;;;;;39.30;21.80;;;;;;;;;;4903544;29;20034;-92
2022/11/19 21:06:15;;;;;;;42.65;22.85;;;;;;;;;;4903399;29;20033;-90
2022/11/19 21:08:41;;;;;;;36.35;21.10;;;;;;;;;;4903111;29;20028;-91
2022/11/19 21:11:12;;;;;;;38.17;22.02;;;;;;;;;;4904270;29;20040;-91
2022/11/19 21:13:39;;;;;;;36.45;20.75;;;;;;;;;;4920643;29;20480;-90
2022/11/19 21:16:06;;;;;;;37.92;21.77;;;;;;;;;;4903316;29;20473;-90
2022/11/19 21:18:35;;;;;;;42.70;23.27;;;;;;;;;;4903431;29;20077;-89
2022/11/19 21:21:09;;;;;;;36.55;21.30;;;;;;;;;;4903439;29;20115;-90
2022/11/19 21:23:34;;;;;;;;;;;;;;;;;;4904268;29;20083;-91
2022/11/19 21:26:08;;;;;;;40.55;22.35;;;;;;;;;;4903268;29;19918;-90
2022/11/19 21:28:35;;;;;;;40.83;22.23;;;;;;;;;;4903212;29;20477;-90
2022/11/19 21:31:01;;;;;;;40.75;22.45;;;;;;;;;;4908539;29;20036;-90
2022/11/19 21:36:34;;;;;;;40.55;21.92;;;;;;;;;;4938652;29;20056;-90
2022/11/19 21:39:07;;;;;;;38.40;22.65;;;;;;;;;;4914622;29;20533;-90
2022/11/19 21:41:34;;;;;;;45.05;24.05;;;;;;;;;;4923572;23;20028;-91
2022/11/19 21:44:07;;;;;;;46.13;24.63;;;;;;;;;;4914276;29;20055;-92
2022/11/19 21:46:33;;;;;;;40.83;23.17;;;;;;;;;;4902739;29;20029;-92
2022/11/19 21:49:02;;;;;;;44.05;25.23;;;;;;;;;;4902485;29;20040;-90
2022/11/19 21:51:29;;;;;;;46.67;25.15;;;;;;;;;;4919206;29;20087;-92
2022/11/19 21:53:56;;;;;;;41.28;23.30;;;;;;;;;;4902262;29;20047;-90
2022/11/19 21:56:22;;;;;;;46.00;24.10;;;;;;;;;;4902451;29;20028;-91
2022/11/19 21:58:49;;;;;;;44.40;25.05;;;;;;;;;;4902961;29;20362;-91
2022/11/19 22:01:18;;;;;;;44.17;24.83;;;;;;;;;;4902337;29;20543;-91
2022/11/19 22:03:56;;;;;;;44.13;25.73;;;;;;;;;;4902597;29;20063;-91
2022/11/19 22:12:29;;;;;;;44.72;24.33;;;;;;;;;;4879973;29;20132;-92
2022/11/19 22:14:55;;;;;;;41.08;23.75;;;;;;;;;;4864116;29;20029;-93
2022/11/19 22:17:21;;;;;;;42.35;23.83;;;;;;;;;;4864078;29;20092;-92
2022/11/19 22:19:48;;;;;;;42.15;23.73;;;;;;;;;;4863318;29;20037;-90
2022/11/19 22:22:20;;;;;;;38.60;22.48;;;;;;;;;;4864713;29;20041;-89
2022/11/19 22:24:49;;;;;;;35.63;20.77;;;;;;;;;;4864808;29;20367;-92
2022/11/19 22:27:15;;;;;;;34.60;20.83;;;;;;;;;;4863965;29;20060;-91
2022/11/19 22:29:44;;;;;;;35.53;20.00;;;;;;;;;;4864583;29;20072;-91
2022/11/19 22:32:13;;;;;;;36.15;21.20;;;;;;;;;;4863819;29;20037;-91
2022/11/19 22:34:42;;;;;;;36.40;21.00;;;;;;;;;;4864031;29;20037;-90
2022/11/19 22:37:14;;;;;;;36.08;21.55;;;;;;;;;;4880878;29;20076;-91
2022/11/19 22:39:40;;;;;;;37.35;21.95;;;;;;;;;;4901550;29;20031;-90
2022/11/19 22:42:06;;;;;;;40.00;22.95;;;;;;;;;;4901612;29;20055;-90
2022/11/19 22:44:38;;;;;;;41.08;22.83;;;;;;;;;;4902029;29;20032;-92
2022/11/19 22:47:04;;;;;;;41.50;22.50;;;;;;;;;;4902045;29;20032;-91
2022/11/19 22:49:31;;;;;;;39.33;22.30;;;;;;;;;;4901560;29;20028;-92
2022/11/19 22:51:57;;;;;;;42.63;23.67;;;;;;;;;;4904102;29;20426;-92
2022/11/19 22:54:37;;;;;;;46.75;24.77;;;;;;;;;;4903211;29;20123;-91
2022/11/19 22:57:05;;;;;;;42.72;23.80;;;;;;;;;;4901598;29;20043;-90
2022/11/19 22:59:31;;;;;;;48.60;26.17;;;;;;;;;;4901577;29;20036;-93
2022/11/19 23:01:57;;;;;;;46.80;25.38;;;;;;;;;;4901713;29;20524;-92
2022/11/19 23:04:24;;;;;;;47.90;25.48;;;;;;;;;;4901437;29;20489;-92
2022/11/19 23:06:51;;;;;;;47.00;24.58;;;;;;;;;;4901464;29;20472;-92
2022/11/19 23:09:17;;;;;;;44.97;24.40;;;;;;;;;;4901275;29;20028;-91
2022/11/19 23:14:28;;;;;;;45.08;24.75;;;;;;;;;;4918717;29;20047;-91
2022/11/19 23:16:55;;;;;;;43.95;24.48;;;;;;;;;;4901926;29;20028;-93
2022/11/19 23:19:21;;;;;;;56.80;28.30;;;;;;;;;;4901844;29;20028;-92
2022/11/19 23:21:48;;;;;;;50.47;26.55;;;;;;;;;;4901609;29;20024;-93
2022/11/19 23:24:14;;;;;;;49.10;24.58;;;;;;;;;;4902221;29;20032;-93
2022/11/19 23:26:46;;;;;;;46.65;24.30;;;;;;;;;;4917621;29;20020;-92
2022/11/19 23:29:15;;;;;;;42.22;23.45;;;;;;;;;;4922005;29;20043;-91
2022/11/19 23:31:50;;;;;;;45.55;23.95;;;;;;;;;;4915327;29;20055;-92
2022/11/19 23:34:16;;;;;;;40.22;22.58;;;;;;;;;;4912633;29;20552;-92
2022/11/19 23:36:45;;;;;;;42.35;22.92;;;;;;;;;;4904795;29;20115;-92
2022/11/19 23:39:17;;;;;;;42.47;22.35;;;;;;;;;;4920518;29;20112;-91
2022/11/19 23:41:44;;;;;;;36.78;20.02;;;;;;;;;;4905164;29;20036;-92
2022/11/19 23:44:13;;;;;;;36.65;20.25;;;;;;;;;;4906176;29;20035;-91
2022/11/19 23:46:42;;;;;;;36.65;20.83;;;;;;;;;;4904934;29;20062;-90
2022/11/19 23:49:10;;;;;;;38.90;20.67;;;;;;;;;;4920639;29;20035;-92
2022/11/19 23:51:46;;;;;;;36.78;20.67;;;;;;;;;;4904862;29;20028;-93
2022/11/19 23:54:13;;;;;;;39.75;20.95;;;;;;;;;;4904935;29;20044;-92
2022/11/19 23:56:39;;;;;;;42.58;22.48;;;;;;;;;;4904782;29;20508;-92
2022/11/19 23:59:05;;;;;;;40.03;22.23;;;;;;;;;;4905088;29;20032;-91
